sensor_id;sensor_type;location;lat;lon;timestamp;P1;durP1;ratioP1;P2;durP2;ratioP2
37845;SDS011;23686;49.828;8.702;2022-12-07T00:03:45;17.15;;;10.18;;
37845;SDS011;23686;49.828;8.702;2022-12-07T00:06:12;15.95;;;9.95;;
37845;SDS011;23686;49.828;8.702;2022-12-07T00:08:39;18.45;;;10.75;;
37845;SDS011;23686;49.828;8.702;2022-12-07T00:11:08;15.55;;;10.20;;
37845;SDS011;23686;49.828;8.702;2022-12-07T00:13:38;16.23;;;9.93;;
37845;SDS011;23686;49.828;8.702;2022-12-07T00:18:32;16.20;;;10.43;;
37845;SDS011;23686;49.828;8.702;2022-12-07T00:21:01;17.23;;;10.70;;
37845;SDS011;23686;49.828;8.702;2022-12-07T00:23:29;19.70;;;10.73;;
37845;SDS011;23686;49.828;8.702;2022-12-07T00:25:54;18.02;;;10.32;;
37845;SDS011;23686;49.828;8.702;2022-12-07T00:28:20;17.80;;;11.13;;
37845;SDS011;23686;49.828;8.702;2022-12-07T00:30:45;15.85;;;10.45;;
37845;SDS011;23686;49.828;8.702;2022-12-07T00:33:11;14.45;;;10.25;;
37845;SDS011;23686;49.828;8.702;2022-12-07T00:35:36;16.48;;;9.98;;
37845;SDS011;23686;49.828;8.702;2022-12-07T00:38:02;13.15;;;9.70;;
37845;SDS011;23686;49.828;8.702;2022-12-07T00:40:27;15.35;;;10.65;;
37845;SDS011;23686;49.828;8.702;2022-12-07T00:42:53;18.63;;;10.73;;
37845;SDS011;23686;49.828;8.702;2022-12-07T00:45:18;15.80;;;10.48;;
37845;SDS011;23686;49.828;8.702;2022-12-07T00:47:44;18.15;;;10.65;;
37845;SDS011;23686;49.828;8.702;2022-12-07T00:50:10;17.05;;;10.95;;
37845;SDS011;23686;49.828;8.702;2022-12-07T00:52:35;16.77;;;11.23;;
37845;SDS011;23686;49.828;8.702;2022-12-07T00:55:01;19.27;;;12.15;;
37845;SDS011;23686;49.828;8.702;2022-12-07T00:57:26;17.38;;;12.05;;
37845;SDS011;23686;49.828;8.702;2022-12-07T00:59:52;18.90;;;11.52;;
37845;SDS011;23686;49.828;8.702;2022-12-07T01:02:20;18.17;;;12.38;;
37845;SDS011;23686;49.828;8.702;2022-12-07T01:04:47;18.25;;;11.77;;
37845;SDS011;23686;49.828;8.702;2022-12-07T01:07:12;20.95;;;11.10;;
37845;SDS011;23686;49.828;8.702;2022-12-07T01:09:38;18.55;;;11.73;;
37845;SDS011;23686;49.828;8.702;2022-12-07T01:12:03;21.23;;;12.30;;
37845;SDS011;23686;49.828;8.702;2022-12-07T01:14:29;20.77;;;12.07;;
37845;SDS011;23686;49.828;8.702;2022-12-07T01:16:54;18.50;;;11.18;;
37845;SDS011;23686;49.828;8.702;2022-12-07T01:19:20;23.25;;;12.63;;
37845;SDS011;23686;49.828;8.702;2022-12-07T01:21:46;20.50;;;11.50;;
37845;SDS011;23686;49.828;8.702;2022-12-07T01:24:11;18.98;;;11.00;;
37845;SDS011;23686;49.828;8.702;2022-12-07T01:26:37;16.92;;;11.55;;
37845;SDS011;23686;49.828;8.702;2022-12-07T01:29:03;16.88;;;11.13;;
37845;SDS011;23686;49.828;8.702;2022-12-07T01:31:28;20.60;;;11.40;;
37845;SDS011;23686;49.828;8.702;2022-12-07T01:33:55;18.65;;;12.00;;
37845;SDS011;23686;49.828;8.702;2022-12-07T01:36:24;19.55;;;11.30;;
37845;SDS011;23686;49.828;8.702;2022-12-07T01:38:51;20.85;;;11.90;;
37845;SDS011;23686;49.828;8.702;2022-12-07T01:41:21;19.38;;;11.48;;
37845;SDS011;23686;49.828;8.702;2022-12-07T01:46:40;21.25;;;12.25;;
37845;SDS011;23686;49.828;8.702;2022-12-07T01:49:08;18.13;;;11.13;;
37845;SDS011;23686;49.828;8.702;2022-12-07T01:51:38;20.02;;;12.07;;
37845;SDS011;23686;49.828;8.702;2022-12-07T01:54:07;19.45;;;11.68;;
37845;SDS011;23686;49.828;8.702;2022-12-07T01:56:35;18.05;;;12.07;;
37845;SDS011;23686;49.828;8.702;2022-12-07T01:59:02;18.00;;;12.00;;
37845;SDS011;23686;49.828;8.702;2022-12-07T02:01:28;18.52;;;12.00;;
37845;SDS011;23686;49.828;8.702;2022-12-07T02:03:54;20.85;;;11.15;;
37845;SDS011;23686;49.828;8.702;2022-12-07T02:06:21;18.80;;;11.10;;
37845;SDS011;23686;49.828;8.702;2022-12-07T02:08:49;18.55;;;11.55;;
37845;SDS011;23686;49.828;8.702;2022-12-07T02:11:15;17.77;;;10.50;;
37845;SDS011;23686;49.828;8.702;2022-12-07T02:13:41;19.67;;;10.60;;
37845;SDS011;23686;49.828;8.702;2022-12-07T02:18:56;17.48;;;11.10;;
37845;SDS011;23686;49.828;8.702;2022-12-07T02:21:49;18.77;;;10.73;;
37845;SDS011;23686;49.828;8.702;2022-12-07T02:24:44;16.02;;;10.60;;
37845;SDS011;23686;49.828;8.702;2022-12-07T02:28:05;18.98;;;10.18;;
37845;SDS011;23686;49.828;8.702;2022-12-07T02:30:23;21.73;;;11.93;;
37845;SDS011;23686;49.828;8.702;2022-12-07T02:35:28;19.95;;;11.13;;
37845;SDS011;23686;49.828;8.702;2022-12-07T02:38:04;18.92;;;10.82;;
37845;SDS011;23686;49.828;8.702;2022-12-07T02:43:19;17.08;;;10.43;;
37845;SDS011;23686;49.828;8.702;2022-12-07T02:45:55;20.70;;;11.23;;
37845;SDS011;23686;49.828;8.702;2022-12-07T02:48:25;18.15;;;11.05;;
37845;SDS011;23686;49.828;8.702;2022-12-07T02:50:52;21.10;;;11.98;;
37845;SDS011;23686;49.828;8.702;2022-12-07T02:53:38;18.58;;;10.82;;
37845;SDS011;23686;49.828;8.702;2022-12-07T03:01:33;17.13;;;11.57;;
37845;SDS011;23686;49.828;8.702;2022-12-07T03:04:33;13.95;;;9.75;;
37845;SDS011;23686;49.828;8.702;2022-12-07T03:07:11;15.20;;;9.60;;
37845;SDS011;23686;49.828;8.702;2022-12-07T03:12:36;16.98;;;9.98;;
37845;SDS011;23686;49.828;8.702;2022-12-07T03:15:42;18.05;;;10.45;;
37845;SDS011;23686;49.828;8.702;2022-12-07T03:18:10;15.88;;;10.25;;
37845;SDS011;23686;49.828;8.702;2022-12-07T03:20:38;14.18;;;10.00;;
37845;SDS011;23686;49.828;8.702;2022-12-07T03:23:06;16.43;;;10.37;;
37845;SDS011;23686;49.828;8.702;2022-12-07T03:28:05;17.85;;;9.30;;
37845;SDS011;23686;49.828;8.702;2022-12-07T03:30:39;19.33;;;9.60;;
37845;SDS011;23686;49.828;8.702;2022-12-07T03:35:45;15.68;;;9.68;;
37845;SDS011;23686;49.828;8.702;2022-12-07T03:38:26;14.95;;;9.40;;
37845;SDS011;23686;49.828;8.702;2022-12-07T03:40:59;14.88;;;8.90;;
37845;SDS011;23686;49.828;8.702;2022-12-07T03:43:31;12.32;;;8.45;;
37845;SDS011;23686;49.828;8.702;2022-12-07T03:48:54;14.30;;;9.02;;
37845;SDS011;23686;49.828;8.702;2022-12-07T03:51:26;16.30;;;9.63;;
37845;SDS011;23686;49.828;8.702;2022-12-07T03:54:06;16.50;;;9.02;;
37845;SDS011;23686;49.828;8.702;2022-12-07T03:56:41;13.80;;;8.52;;
37845;SDS011;23686;49.828;8.702;2022-12-07T03:59:08;13.05;;;8.73;;
37845;SDS011;23686;49.828;8.702;2022-12-07T04:01:36;11.97;;;7.93;;
37845;SDS011;23686;49.828;8.702;2022-12-07T04:04:01;15.13;;;9.07;;
37845;SDS011;23686;49.828;8.702;2022-12-07T04:06:27;13.95;;;9.25;;
37845;SDS011;23686;49.828;8.702;2022-12-07T04:08:53;12.05;;;8.15;;
37845;SDS011;23686;49.828;8.702;2022-12-07T04:11:18;15.30;;;8.98;;
37845;SDS011;23686;49.828;8.702;2022-12-07T04:13:44;14.25;;;8.50;;
37845;SDS011;23686;49.828;8.702;2022-12-07T04:16:28;13.68;;;9.07;;
37845;SDS011;23686;49.828;8.702;2022-12-07T04:18:53;13.93;;;8.73;;
37845;SDS011;23686;49.828;8.702;2022-12-07T04:21:19;15.95;;;8.93;;
37845;SDS011;23686;49.828;8.702;2022-12-07T04:23:44;14.45;;;9.18;;
37845;SDS011;23686;49.828;8.702;2022-12-07T04:26:10;13.13;;;8.90;;
37845;SDS011;23686;49.828;8.702;2022-12-07T04:28:35;13.30;;;8.85;;
37845;SDS011;23686;49.828;8.702;2022-12-07T04:31:01;13.73;;;8.18;;
37845;SDS011;23686;49.828;8.702;2022-12-07T04:33:26;12.02;;;8.20;;
37845;SDS011;23686;49.828;8.702;2022-12-07T04:35:52;14.40;;;9.10;;
37845;SDS011;23686;49.828;8.702;2022-12-07T04:38:17;14.10;;;8.30;;
37845;SDS011;23686;49.828;8.702;2022-12-07T04:40:43;15.23;;;9.05;;
37845;SDS011;23686;49.828;8.702;2022-12-07T04:43:08;14.05;;;8.55;;
37845;SDS011;23686;49.828;8.702;2022-12-07T04:45:34;11.80;;;8.00;;
37845;SDS011;23686;49.828;8.702;2022-12-07T04:47:59;12.75;;;7.68;;
37845;SDS011;23686;49.828;8.702;2022-12-07T04:50:25;15.50;;;8.82;;
37845;SDS011;23686;49.828;8.702;2022-12-07T04:52:53;11.93;;;8.30;;
37845;SDS011;23686;49.828;8.702;2022-12-07T04:55:19;15.98;;;9.05;;
37845;SDS011;23686;49.828;8.702;2022-12-07T04:57:44;17.67;;;8.82;;
37845;SDS011;23686;49.828;8.702;2022-12-07T05:00:10;14.48;;;8.70;;
37845;SDS011;23686;49.828;8.702;2022-12-07T05:02:37;13.65;;;8.30;;
37845;SDS011;23686;49.828;8.702;2022-12-07T05:05:02;14.95;;;9.15;;
37845;SDS011;23686;49.828;8.702;2022-12-07T05:07:28;15.85;;;8.27;;
37845;SDS011;23686;49.828;8.702;2022-12-07T05:09:54;12.80;;;8.57;;
37845;SDS011;23686;49.828;8.702;2022-12-07T05:12:19;12.35;;;8.32;;
37845;SDS011;23686;49.828;8.702;2022-12-07T05:14:45;14.23;;;8.30;;
37845;SDS011;23686;49.828;8.702;2022-12-07T05:17:10;11.63;;;8.32;;
37845;SDS011;23686;49.828;8.702;2022-12-07T05:19:36;15.05;;;8.77;;
37845;SDS011;23686;49.828;8.702;2022-12-07T05:22:02;19.58;;;10.38;;
37845;SDS011;23686;49.828;8.702;2022-12-07T05:24:27;20.80;;;10.85;;
37845;SDS011;23686;49.828;8.702;2022-12-07T05:26:53;16.10;;;9.30;;
37845;SDS011;23686;49.828;8.702;2022-12-07T05:29:18;15.00;;;9.00;;
37845;SDS011;23686;49.828;8.702;2022-12-07T05:31:44;15.88;;;9.45;;
37845;SDS011;23686;49.828;8.702;2022-12-07T05:34:10;13.85;;;8.98;;
37845;SDS011;23686;49.828;8.702;2022-12-07T05:36:36;14.55;;;8.68;;
37845;SDS011;23686;49.828;8.702;2022-12-07T05:39:02;11.93;;;8.52;;
37845;SDS011;23686;49.828;8.702;2022-12-07T05:41:28;15.60;;;8.95;;
37845;SDS011;23686;49.828;8.702;2022-12-07T05:44:12;13.73;;;8.90;;
37845;SDS011;23686;49.828;8.702;2022-12-07T05:46:37;18.25;;;9.88;;
37845;SDS011;23686;49.828;8.702;2022-12-07T05:49:03;16.38;;;9.68;;
37845;SDS011;23686;49.828;8.702;2022-12-07T05:51:29;15.48;;;9.52;;
37845;SDS011;23686;49.828;8.702;2022-12-07T05:53:55;15.32;;;9.90;;
37845;SDS011;23686;49.828;8.702;2022-12-07T05:56:20;15.93;;;9.20;;
37845;SDS011;23686;49.828;8.702;2022-12-07T05:58:46;16.83;;;9.38;;
37845;SDS011;23686;49.828;8.702;2022-12-07T06:01:30;16.20;;;8.77;;
37845;SDS011;23686;49.828;8.702;2022-12-07T06:03:55;13.20;;;9.15;;
37845;SDS011;23686;49.828;8.702;2022-12-07T06:06:21;17.45;;;9.52;;
37845;SDS011;23686;49.828;8.702;2022-12-07T06:08:47;18.80;;;11.30;;
37845;SDS011;23686;49.828;8.702;2022-12-07T06:11:12;23.02;;;12.55;;
37845;SDS011;23686;49.828;8.702;2022-12-07T06:16:22;27.10;;;14.70;;
37845;SDS011;23686;49.828;8.702;2022-12-07T06:18:47;23.60;;;14.50;;
37845;SDS011;23686;49.828;8.702;2022-12-07T06:21:13;24.65;;;14.43;;
37845;SDS011;23686;49.828;8.702;2022-12-07T06:23:39;19.63;;;12.60;;
37845;SDS011;23686;49.828;8.702;2022-12-07T06:26:05;19.83;;;12.48;;
37845;SDS011;23686;49.828;8.702;2022-12-07T06:28:30;18.08;;;11.98;;
37845;SDS011;23686;49.828;8.702;2022-12-07T06:30:56;15.88;;;9.95;;
37845;SDS011;23686;49.828;8.702;2022-12-07T06:33:23;17.60;;;10.60;;
37845;SDS011;23686;49.828;8.702;2022-12-07T06:35:49;24.23;;;15.52;;
37845;SDS011;23686;49.828;8.702;2022-12-07T06:38:15;19.15;;;12.20;;
37845;SDS011;23686;49.828;8.702;2022-12-07T06:40:40;19.95;;;11.30;;
37845;SDS011;23686;49.828;8.702;2022-12-07T06:43:06;17.13;;;11.25;;
37845;SDS011;23686;49.828;8.702;2022-12-07T06:45:31;19.92;;;12.50;;
37845;SDS011;23686;49.828;8.702;2022-12-07T06:47:57;20.27;;;12.43;;
37845;SDS011;23686;49.828;8.702;2022-12-07T06:50:22;16.70;;;11.18;;
37845;SDS011;23686;49.828;8.702;2022-12-07T06:52:48;17.80;;;12.27;;
37845;SDS011;23686;49.828;8.702;2022-12-07T06:55:13;15.88;;;11.13;;
37845;SDS011;23686;49.828;8.702;2022-12-07T06:57:39;14.98;;;10.10;;
37845;SDS011;23686;49.828;8.702;2022-12-07T07:00:04;16.35;;;10.40;;
37845;SDS011;23686;49.828;8.702;2022-12-07T07:02:31;20.50;;;11.20;;
37845;SDS011;23686;49.828;8.702;2022-12-07T07:04:56;15.15;;;10.35;;
37845;SDS011;23686;49.828;8.702;2022-12-07T07:07:22;16.92;;;10.15;;
37845;SDS011;23686;49.828;8.702;2022-12-07T07:09:48;16.90;;;10.73;;
37845;SDS011;23686;49.828;8.702;2022-12-07T07:12:13;20.67;;;11.18;;
37845;SDS011;23686;49.828;8.702;2022-12-07T07:14:39;14.55;;;9.88;;
37845;SDS011;23686;49.828;8.702;2022-12-07T07:17:04;17.75;;;11.23;;
37845;SDS011;23686;49.828;8.702;2022-12-07T07:19:30;22.08;;;14.50;;
37845;SDS011;23686;49.828;8.702;2022-12-07T07:21:55;22.50;;;13.73;;
37845;SDS011;23686;49.828;8.702;2022-12-07T07:24:21;18.73;;;12.52;;
37845;SDS011;23686;49.828;8.702;2022-12-07T07:26:46;17.83;;;12.32;;
37845;SDS011;23686;49.828;8.702;2022-12-07T07:29:12;17.20;;;10.30;;
37845;SDS011;23686;49.828;8.702;2022-12-07T07:31:37;17.48;;;11.05;;
37845;SDS011;23686;49.828;8.702;2022-12-07T07:34:03;14.35;;;10.07;;
37845;SDS011;23686;49.828;8.702;2022-12-07T07:36:29;15.57;;;10.52;;
37845;SDS011;23686;49.828;8.702;2022-12-07T07:38:55;18.10;;;11.15;;
37845;SDS011;23686;49.828;8.702;2022-12-07T07:41:20;19.08;;;12.10;;
37845;SDS011;23686;49.828;8.702;2022-12-07T07:43:46;20.80;;;12.60;;
37845;SDS011;23686;49.828;8.702;2022-12-07T07:46:11;20.27;;;12.93;;
37845;SDS011;23686;49.828;8.702;2022-12-07T07:48:37;17.20;;;11.65;;
37845;SDS011;23686;49.828;8.702;2022-12-07T07:51:06;19.02;;;12.32;;
37845;SDS011;23686;49.828;8.702;2022-12-07T07:53:32;16.65;;;11.13;;
37845;SDS011;23686;49.828;8.702;2022-12-07T07:55:57;15.57;;;10.13;;
37845;SDS011;23686;49.828;8.702;2022-12-07T07:58:23;16.80;;;11.40;;
37845;SDS011;23686;49.828;8.702;2022-12-07T08:00:49;17.05;;;11.02;;
37845;SDS011;23686;49.828;8.702;2022-12-07T08:03:15;16.48;;;10.55;;
37845;SDS011;23686;49.828;8.702;2022-12-07T08:05:40;17.27;;;10.75;;
37845;SDS011;23686;49.828;8.702;2022-12-07T08:08:06;17.45;;;10.75;;
37845;SDS011;23686;49.828;8.702;2022-12-07T08:10:31;18.00;;;11.02;;
37845;SDS011;23686;49.828;8.702;2022-12-07T08:12:57;15.43;;;10.40;;
37845;SDS011;23686;49.828;8.702;2022-12-07T08:18:02;17.17;;;10.80;;
37845;SDS011;23686;49.828;8.702;2022-12-07T08:20:29;17.88;;;11.18;;
37845;SDS011;23686;49.828;8.702;2022-12-07T08:22:55;17.10;;;11.15;;
37845;SDS011;23686;49.828;8.702;2022-12-07T08:25:20;20.38;;;11.18;;
37845;SDS011;23686;49.828;8.702;2022-12-07T08:30:15;16.92;;;10.35;;
37845;SDS011;23686;49.828;8.702;2022-12-07T08:32:41;20.73;;;11.80;;
37845;SDS011;23686;49.828;8.702;2022-12-07T08:35:07;18.50;;;10.98;;
37845;SDS011;23686;49.828;8.702;2022-12-07T08:37:33;15.68;;;11.15;;
37845;SDS011;23686;49.828;8.702;2022-12-07T08:39:58;17.10;;;10.43;;
37845;SDS011;23686;49.828;8.702;2022-12-07T08:42:24;19.80;;;10.52;;
37845;SDS011;23686;49.828;8.702;2022-12-07T08:44:54;16.17;;;10.57;;
37845;SDS011;23686;49.828;8.702;2022-12-07T08:47:21;17.77;;;11.10;;
37845;SDS011;23686;49.828;8.702;2022-12-07T08:49:48;17.83;;;11.55;;
37845;SDS011;23686;49.828;8.702;2022-12-07T08:52:16;15.02;;;10.73;;
37845;SDS011;23686;49.828;8.702;2022-12-07T08:54:42;16.17;;;10.65;;
37845;SDS011;23686;49.828;8.702;2022-12-07T08:57:09;18.80;;;11.35;;
37845;SDS011;23686;49.828;8.702;2022-12-07T08:59:35;13.43;;;10.32;;
37845;SDS011;23686;49.828;8.702;2022-12-07T09:02:02;16.83;;;10.60;;
37845;SDS011;23686;49.828;8.702;2022-12-07T09:04:28;17.73;;;10.63;;
37845;SDS011;23686;49.828;8.702;2022-12-07T09:06:54;15.95;;;10.13;;
37845;SDS011;23686;49.828;8.702;2022-12-07T09:09:20;16.90;;;10.43;;
37845;SDS011;23686;49.828;8.702;2022-12-07T09:11:46;17.25;;;10.98;;
37845;SDS011;23686;49.828;8.702;2022-12-07T09:14:11;17.60;;;10.82;;
37845;SDS011;23686;49.828;8.702;2022-12-07T09:16:38;18.60;;;11.60;;
37845;SDS011;23686;49.828;8.702;2022-12-07T09:19:03;15.07;;;10.45;;
37845;SDS011;23686;49.828;8.702;2022-12-07T09:21:29;16.27;;;11.20;;
37845;SDS011;23686;49.828;8.702;2022-12-07T09:23:55;14.75;;;10.07;;
37845;SDS011;23686;49.828;8.702;2022-12-07T09:26:21;19.88;;;11.52;;
37845;SDS011;23686;49.828;8.702;2022-12-07T09:28:46;16.58;;;11.57;;
37845;SDS011;23686;49.828;8.702;2022-12-07T09:31:12;14.35;;;10.70;;
37845;SDS011;23686;49.828;8.702;2022-12-07T09:33:37;16.10;;;10.20;;
37845;SDS011;23686;49.828;8.702;2022-12-07T09:36:03;15.10;;;10.82;;
37845;SDS011;23686;49.828;8.702;2022-12-07T09:38:30;18.75;;;10.98;;
37845;SDS011;23686;49.828;8.702;2022-12-07T09:40:56;17.77;;;10.63;;
37845;SDS011;23686;49.828;8.702;2022-12-07T09:43:22;15.90;;;10.80;;
37845;SDS011;23686;49.828;8.702;2022-12-07T09:45:53;17.57;;;10.50;;
37845;SDS011;23686;49.828;8.702;2022-12-07T09:48:21;16.88;;;11.48;;
37845;SDS011;23686;49.828;8.702;2022-12-07T09:50:50;16.42;;;10.63;;
37845;SDS011;23686;49.828;8.702;2022-12-07T09:53:20;16.85;;;11.57;;
37845;SDS011;23686;49.828;8.702;2022-12-07T09:55:53;16.60;;;11.25;;
37845;SDS011;23686;49.828;8.702;2022-12-07T09:58:20;14.25;;;10.35;;
37845;SDS011;23686;49.828;8.702;2022-12-07T10:01:32;17.83;;;10.68;;
37845;SDS011;23686;49.828;8.702;2022-12-07T10:03:50;17.52;;;11.48;;
37845;SDS011;23686;49.828;8.702;2022-12-07T10:06:24;17.33;;;11.13;;
37845;SDS011;23686;49.828;8.702;2022-12-07T10:08:50;19.17;;;11.23;;
37845;SDS011;23686;49.828;8.702;2022-12-07T10:11:15;18.02;;;11.70;;
37845;SDS011;23686;49.828;8.702;2022-12-07T10:18:54;18.38;;;11.68;;
37845;SDS011;23686;49.828;8.702;2022-12-07T10:21:21;23.05;;;11.43;;
37845;SDS011;23686;49.828;8.702;2022-12-07T10:26:34;18.93;;;10.93;;
37845;SDS011;23686;49.828;8.702;2022-12-07T10:29:04;18.98;;;11.27;;
37845;SDS011;23686;49.828;8.702;2022-12-07T10:31:41;17.65;;;11.70;;
37845;SDS011;23686;49.828;8.702;2022-12-07T10:36:53;17.52;;;11.27;;
37845;SDS011;23686;49.828;8.702;2022-12-07T10:39:47;19.58;;;11.57;;
37845;SDS011;23686;49.828;8.702;2022-12-07T10:42:18;20.08;;;12.40;;
37845;SDS011;23686;49.828;8.702;2022-12-07T10:44:49;20.70;;;12.10;;
37845;SDS011;23686;49.828;8.702;2022-12-07T10:47:34;19.45;;;12.50;;
37845;SDS011;23686;49.828;8.702;2022-12-07T10:52:43;17.25;;;11.63;;
37845;SDS011;23686;49.828;8.702;2022-12-07T11:03:41;22.65;;;13.90;;
37845;SDS011;23686;49.828;8.702;2022-12-07T11:15:12;20.20;;;11.55;;
37845;SDS011;23686;49.828;8.702;2022-12-07T11:23:45;17.75;;;11.45;;
37845;SDS011;23686;49.828;8.702;2022-12-07T11:31:54;16.10;;;9.77;;
37845;SDS011;23686;49.828;8.702;2022-12-07T11:37:18;19.33;;;10.40;;
37845;SDS011;23686;49.828;8.702;2022-12-07T11:39:50;19.15;;;12.15;;
37845;SDS011;23686;49.828;8.702;2022-12-07T11:42:21;19.55;;;12.90;;
37845;SDS011;23686;49.828;8.702;2022-12-07T11:44:51;17.20;;;11.63;;
37845;SDS011;23686;49.828;8.702;2022-12-07T11:47:42;18.25;;;12.82;;
37845;SDS011;23686;49.828;8.702;2022-12-07T11:53:09;18.45;;;10.02;;
37845;SDS011;23686;49.828;8.702;2022-12-07T11:55:41;13.52;;;9.55;;
37845;SDS011;23686;49.828;8.702;2022-12-07T12:06:35;14.45;;;10.35;;
37845;SDS011;23686;49.828;8.702;2022-12-07T12:20:00;18.20;;;11.20;;
37845;SDS011;23686;49.828;8.702;2022-12-07T12:22:33;16.27;;;10.50;;
37845;SDS011;23686;49.828;8.702;2022-12-07T12:25:06;16.73;;;10.85;;
37845;SDS011;23686;49.828;8.702;2022-12-07T12:27:42;15.90;;;9.60;;
37845;SDS011;23686;49.828;8.702;2022-12-07T12:33:49;18.40;;;8.65;;
37845;SDS011;23686;49.828;8.702;2022-12-07T12:46:46;11.20;;;7.63;;
37845;SDS011;23686;49.828;8.702;2022-12-07T12:51:50;13.25;;;8.05;;
37845;SDS011;23686;49.828;8.702;2022-12-07T12:54:35;13.60;;;8.63;;
37845;SDS011;23686;49.828;8.702;2022-12-07T12:57:13;14.10;;;7.70;;
37845;SDS011;23686;49.828;8.702;2022-12-07T13:15:41;13.80;;;6.78;;
37845;SDS011;23686;49.828;8.702;2022-12-07T13:31:32;14.15;;;7.18;;
37845;SDS011;23686;49.828;8.702;2022-12-07T13:34:04;12.02;;;6.35;;
37845;SDS011;23686;49.828;8.702;2022-12-07T13:36:50;9.48;;;6.30;;
37845;SDS011;23686;49.828;8.702;2022-12-07T13:39:21;13.43;;;5.53;;
37845;SDS011;23686;49.828;8.702;2022-12-07T13:41:52;10.27;;;5.72;;
37845;SDS011;23686;49.828;8.702;2022-12-07T13:44:20;9.85;;;5.60;;
37845;SDS011;23686;49.828;8.702;2022-12-07T13:49:47;13.23;;;6.38;;
37845;SDS011;23686;49.828;8.702;2022-12-07T13:52:19;14.57;;;6.88;;
37845;SDS011;23686;49.828;8.702;2022-12-07T13:54:54;14.60;;;8.65;;
37845;SDS011;23686;49.828;8.702;2022-12-07T13:57:34;17.00;;;9.75;;
37845;SDS011;23686;49.828;8.702;2022-12-07T14:00:05;14.15;;;8.05;;
37845;SDS011;23686;49.828;8.702;2022-12-07T14:02:53;11.93;;;7.40;;
37845;SDS011;23686;49.828;8.702;2022-12-07T14:05:29;12.77;;;7.15;;
37845;SDS011;23686;49.828;8.702;2022-12-07T14:07:56;8.23;;;6.22;;
37845;SDS011;23686;49.828;8.702;2022-12-07T14:10:33;12.07;;;7.28;;
37845;SDS011;23686;49.828;8.702;2022-12-07T14:13:02;10.65;;;6.50;;
37845;SDS011;23686;49.828;8.702;2022-12-07T14:15:43;12.80;;;6.78;;
37845;SDS011;23686;49.828;8.702;2022-12-07T14:18:24;12.25;;;7.05;;
37845;SDS011;23686;49.828;8.702;2022-12-07T14:21:02;10.13;;;6.57;;
37845;SDS011;23686;49.828;8.702;2022-12-07T14:23:29;11.15;;;6.32;;
37845;SDS011;23686;49.828;8.702;2022-12-07T14:26:03;13.57;;;7.13;;
37845;SDS011;23686;49.828;8.702;2022-12-07T14:28:36;9.65;;;6.35;;
37845;SDS011;23686;49.828;8.702;2022-12-07T14:31:03;14.50;;;6.88;;
37845;SDS011;23686;49.828;8.702;2022-12-07T14:33:35;12.50;;;7.65;;
37845;SDS011;23686;49.828;8.702;2022-12-07T14:36:00;9.75;;;6.85;;
37845;SDS011;23686;49.828;8.702;2022-12-07T14:38:26;10.20;;;7.35;;
37845;SDS011;23686;49.828;8.702;2022-12-07T14:40:52;13.60;;;6.75;;
37845;SDS011;23686;49.828;8.702;2022-12-07T14:43:19;9.00;;;5.88;;
37845;SDS011;23686;49.828;8.702;2022-12-07T14:45:45;14.18;;;6.60;;
37845;SDS011;23686;49.828;8.702;2022-12-07T14:48:11;11.07;;;6.35;;
37845;SDS011;23686;49.828;8.702;2022-12-07T14:50:40;10.55;;;6.60;;
37845;SDS011;23686;49.828;8.702;2022-12-07T14:53:15;9.50;;;5.70;;
37845;SDS011;23686;49.828;8.702;2022-12-07T14:55:43;12.85;;;6.28;;
37845;SDS011;23686;49.828;8.702;2022-12-07T14:58:13;9.30;;;5.65;;
37845;SDS011;23686;49.828;8.702;2022-12-07T15:00:40;12.80;;;5.57;;
37845;SDS011;23686;49.828;8.702;2022-12-07T15:03:05;7.78;;;5.55;;
37845;SDS011;23686;49.828;8.702;2022-12-07T15:05:31;10.32;;;5.38;;
37845;SDS011;23686;49.828;8.702;2022-12-07T15:07:58;8.48;;;5.05;;
37845;SDS011;23686;49.828;8.702;2022-12-07T15:10:25;8.45;;;5.40;;
37845;SDS011;23686;49.828;8.702;2022-12-07T15:12:57;6.53;;;4.78;;
37845;SDS011;23686;49.828;8.702;2022-12-07T15:15:43;7.43;;;4.57;;
37845;SDS011;23686;49.828;8.702;2022-12-07T15:18:08;14.98;;;4.63;;
37845;SDS011;23686;49.828;8.702;2022-12-07T15:20:34;6.03;;;4.18;;
37845;SDS011;23686;49.828;8.702;2022-12-07T15:22:59;11.07;;;4.55;;
37845;SDS011;23686;49.828;8.702;2022-12-07T15:25:25;9.40;;;4.63;;
37845;SDS011;23686;49.828;8.702;2022-12-07T15:27:51;8.18;;;4.35;;
37845;SDS011;23686;49.828;8.702;2022-12-07T15:30:16;7.47;;;4.03;;
37845;SDS011;23686;49.828;8.702;2022-12-07T15:32:42;8.48;;;4.95;;
37845;SDS011;23686;49.828;8.702;2022-12-07T15:35:07;11.13;;;5.28;;
37845;SDS011;23686;49.828;8.702;2022-12-07T15:37:33;11.57;;;5.97;;
37845;SDS011;23686;49.828;8.702;2022-12-07T15:39:59;13.95;;;6.10;;
37845;SDS011;23686;49.828;8.702;2022-12-07T15:42:24;13.55;;;6.88;;
37845;SDS011;23686;49.828;8.702;2022-12-07T15:44:50;11.20;;;6.43;;
37845;SDS011;23686;49.828;8.702;2022-12-07T15:47:41;8.32;;;5.22;;
37845;SDS011;23686;49.828;8.702;2022-12-07T15:50:11;8.63;;;4.97;;
37845;SDS011;23686;49.828;8.702;2022-12-07T15:52:39;12.80;;;7.60;;
37845;SDS011;23686;49.828;8.702;2022-12-07T15:55:04;18.95;;;10.23;;
37845;SDS011;23686;49.828;8.702;2022-12-07T15:57:31;22.00;;;12.13;;
37845;SDS011;23686;49.828;8.702;2022-12-07T15:59:57;16.23;;;9.95;;
37845;SDS011;23686;49.828;8.702;2022-12-07T16:02:23;10.30;;;6.10;;
37845;SDS011;23686;49.828;8.702;2022-12-07T16:04:49;7.88;;;4.82;;
37845;SDS011;23686;49.828;8.702;2022-12-07T16:07:15;9.90;;;6.28;;
37845;SDS011;23686;49.828;8.702;2022-12-07T16:09:42;12.25;;;6.72;;
37845;SDS011;23686;49.828;8.702;2022-12-07T16:12:08;10.90;;;6.57;;
37845;SDS011;23686;49.828;8.702;2022-12-07T16:14:35;7.35;;;5.30;;
37845;SDS011;23686;49.828;8.702;2022-12-07T16:17:01;10.93;;;6.75;;
37845;SDS011;23686;49.828;8.702;2022-12-07T16:19:26;13.48;;;6.80;;
37845;SDS011;23686;49.828;8.702;2022-12-07T16:21:52;11.23;;;6.88;;
37845;SDS011;23686;49.828;8.702;2022-12-07T16:24:18;16.02;;;8.48;;
37845;SDS011;23686;49.828;8.702;2022-12-07T16:26:44;13.93;;;8.45;;
37845;SDS011;23686;49.828;8.702;2022-12-07T16:29:13;10.88;;;6.88;;
37845;SDS011;23686;49.828;8.702;2022-12-07T16:31:39;14.93;;;8.48;;
37845;SDS011;23686;49.828;8.702;2022-12-07T16:34:05;13.73;;;9.05;;
37845;SDS011;23686;49.828;8.702;2022-12-07T16:36:31;16.55;;;10.35;;
37845;SDS011;23686;49.828;8.702;2022-12-07T16:38:58;17.05;;;10.43;;
37845;SDS011;23686;49.828;8.702;2022-12-07T16:41:24;16.15;;;9.30;;
37845;SDS011;23686;49.828;8.702;2022-12-07T16:43:50;13.93;;;9.70;;
37845;SDS011;23686;49.828;8.702;2022-12-07T16:46:15;18.95;;;13.00;;
37845;SDS011;23686;49.828;8.702;2022-12-07T16:48:41;11.00;;;6.15;;
37845;SDS011;23686;49.828;8.702;2022-12-07T16:51:08;11.70;;;7.40;;
37845;SDS011;23686;49.828;8.702;2022-12-07T16:53:35;16.73;;;6.53;;
37845;SDS011;23686;49.828;8.702;2022-12-07T16:56:01;10.00;;;6.85;;
37845;SDS011;23686;49.828;8.702;2022-12-07T16:58:27;10.55;;;6.57;;
37845;SDS011;23686;49.828;8.702;2022-12-07T17:00:53;11.57;;;6.70;;
37845;SDS011;23686;49.828;8.702;2022-12-07T17:03:19;7.15;;;5.43;;
37845;SDS011;23686;49.828;8.702;2022-12-07T17:05:45;9.93;;;6.55;;
37845;SDS011;23686;49.828;8.702;2022-12-07T17:08:11;8.13;;;5.93;;
37845;SDS011;23686;49.828;8.702;2022-12-07T17:10:39;11.38;;;6.25;;
37845;SDS011;23686;49.828;8.702;2022-12-07T17:13:06;9.85;;;5.75;;